Pagina principale
METAR-TAF:

METAR-TAF

Aeroporti :

Alpnach, Svizzera

latitudine: 46-56-19N, longitudine: 8-17-03E, altezza: 440 m

Osservazione

Il bollettino è stato emesso 54 minuti fa, alle 05:50 UTC
Vento 2 kt da direzioni variabili
Temperature 13°C
Umidità 94%
Pressione 1014 hPa
Visibilità: 6000 m
Poco nuvoloso ad un'altezza di 500 ft
Nuvoloso ad un'altezza di 3800 ft
Cielo coperto ad un'altezza di 4700 ft
pioggia

METAR: LSMA 260550Z VRB02KT 6000 RA FEW005 BKN038 OVC047 13/12 Q1014 RMK WHT

Ora: 08:44 (06:44 UTC)


TAF: mancante

Osservazioni e previsioni meteorologiche di più di 4000 aeroporti (messaggi METAR e TAF).

Le stazioni disponibili sono rappresentate dai dischi gialli e rossi sulla carta.

Puntare il mouse per vedere il nome della stazione.

Clicca sopra per visualizzare le osservazioni e previsioni meteorologiche.

Per cambiare la mappa : fare clic sui pulsanti verdi con una croce nera per ingrandire, il pulsante verde con un trattino per diminuire, o sulla freccia verde per le mappe adiacenti.


METAR-TAF: